sensor_id;sensor_type;location;lat;lon;timestamp;pressure;altitude;pressure_sealevel;temperature;humidity
20023;BME280;10172;42.054;24.546;2023-06-04T00:01:21;98235.84;;;18.05;100.00
20023;BME280;10172;42.054;24.546;2023-06-04T00:03:47;98222.78;;;18.45;100.00
20023;BME280;10172;42.054;24.546;2023-06-04T00:06:12;98234.53;;;19.23;100.00
20023;BME280;10172;42.054;24.546;2023-06-04T00:08:38;98234.78;;;19.63;100.00
20023;BME280;10172;42.054;24.546;2023-06-04T00:11:03;98230.00;;;18.97;100.00
20023;BME280;10172;42.054;24.546;2023-06-04T00:13:29;98226.81;;;19.02;100.00
20023;BME280;10172;42.054;24.546;2023-06-04T00:15:54;98234.97;;;18.92;100.00
20023;BME280;10172;42.054;24.546;2023-06-04T00:18:20;98228.78;;;19.18;100.00
20023;BME280;10172;42.054;24.546;2023-06-04T00:20:45;98223.94;;;19.03;100.00
20023;BME280;10172;42.054;24.546;2023-06-04T00:23:11;98234.84;;;18.94;100.00
20023;BME280;10172;42.054;24.546;2023-06-04T00:25:36;98236.78;;;18.31;100.00
20023;BME280;10172;42.054;24.546;2023-06-04T00:28:02;98233.41;;;18.29;100.00
20023;BME280;10172;42.054;24.546;2023-06-04T00:30:27;98237.13;;;18.63;100.00
20023;BME280;10172;42.054;24.546;2023-06-04T00:32:53;98239.72;;;17.65;100.00
20023;BME280;10172;42.054;24.546;2023-06-04T00:35:18;98249.69;;;18.10;100.00
20023;BME280;10172;42.054;24.546;2023-06-04T00:37:44;98231.13;;;17.15;100.00
20023;BME280;10172;42.054;24.546;2023-06-04T00:40:10;98246.16;;;17.82;100.00
20023;BME280;10172;42.054;24.546;2023-06-04T00:42:36;98247.56;;;17.59;100.00
20023;BME280;10172;42.054;24.546;2023-06-04T00:45:01;98243.53;;;18.17;100.00
20023;BME280;10172;42.054;24.546;2023-06-04T00:47:27;98251.84;;;17.79;100.00
20023;BME280;10172;42.054;24.546;2023-06-04T00:49:56;98244.13;;;17.29;100.00
20023;BME280;10172;42.054;24.546;2023-06-04T00:52:23;98256.25;;;17.33;100.00
20023;BME280;10172;42.054;24.546;2023-06-04T00:54:49;98250.75;;;17.72;100.00
20023;BME280;10172;42.054;24.546;2023-06-04T00:57:15;98247.03;;;17.36;100.00
20023;BME280;10172;42.054;24.546;2023-06-04T00:59:41;98239.19;;;17.52;100.00
20023;BME280;10172;42.054;24.546;2023-06-04T01:02:11;98249.09;;;17.61;100.00
20023;BME280;10172;42.054;24.546;2023-06-04T01:07:11;98248.34;;;17.22;100.00
20023;BME280;10172;42.054;24.546;2023-06-04T01:09:39;98252.75;;;17.23;100.00
20023;BME280;10172;42.054;24.546;2023-06-04T01:12:05;98257.09;;;17.34;100.00
20023;BME280;10172;42.054;24.546;2023-06-04T01:14:31;98252.75;;;17.97;100.00
20023;BME280;10172;42.054;24.546;2023-06-04T01:17:02;98258.38;;;17.76;100.00
20023;BME280;10172;42.054;24.546;2023-06-04T01:24:53;98247.03;;;16.32;100.00
20023;BME280;10172;42.054;24.546;2023-06-04T01:27:21;98250.81;;;16.20;100.00
20023;BME280;10172;42.054;24.546;2023-06-04T01:29:48;98256.78;;;16.91;100.00
20023;BME280;10172;42.054;24.546;2023-06-04T01:32:16;98261.97;;;17.11;100.00
20023;BME280;10172;42.054;24.546;2023-06-04T01:34:46;98269.41;;;18.01;100.00
20023;BME280;10172;42.054;24.546;2023-06-04T01:37:12;98265.97;;;18.35;100.00
20023;BME280;10172;42.054;24.546;2023-06-04T01:39:38;98267.16;;;17.78;100.00
20023;BME280;10172;42.054;24.546;2023-06-04T01:42:03;98266.16;;;18.52;100.00
20023;BME280;10172;42.054;24.546;2023-06-04T01:44:29;98253.81;;;18.67;100.00
20023;BME280;10172;42.054;24.546;2023-06-04T01:46:54;98268.69;;;19.14;100.00
20023;BME280;10172;42.054;24.546;2023-06-04T01:49:20;98274.59;;;19.18;100.00
20023;BME280;10172;42.054;24.546;2023-06-04T01:51:45;98271.47;;;19.48;100.00
20023;BME280;10172;42.054;24.546;2023-06-04T01:54:11;98278.19;;;18.30;100.00
20023;BME280;10172;42.054;24.546;2023-06-04T01:56:36;98277.94;;;19.11;100.00
20023;BME280;10172;42.054;24.546;2023-06-04T01:59:02;98278.41;;;19.50;100.00
20023;BME280;10172;42.054;24.546;2023-06-04T02:01:27;98278.75;;;19.55;100.00
20023;BME280;10172;42.054;24.546;2023-06-04T02:03:52;98269.75;;;18.60;100.00
20023;BME280;10172;42.054;24.546;2023-06-04T02:06:18;98291.16;;;19.23;100.00
20023;BME280;10172;42.054;24.546;2023-06-04T02:08:44;98273.69;;;18.83;100.00
20023;BME280;10172;42.054;24.546;2023-06-04T02:11:10;98279.38;;;18.80;100.00
20023;BME280;10172;42.054;24.546;2023-06-04T02:13:35;98282.28;;;18.07;100.00
20023;BME280;10172;42.054;24.546;2023-06-04T02:16:01;98294.13;;;17.59;100.00
20023;BME280;10172;42.054;24.546;2023-06-04T02:18:27;98272.63;;;16.94;100.00
20023;BME280;10172;42.054;24.546;2023-06-04T02:20:52;98280.13;;;16.81;100.00
20023;BME280;10172;42.054;24.546;2023-06-04T02:23:19;98277.53;;;16.31;100.00
20023;BME280;10172;42.054;24.546;2023-06-04T02:25:45;98278.72;;;16.57;100.00
20023;BME280;10172;42.054;24.546;2023-06-04T02:28:11;98293.44;;;16.72;100.00
20023;BME280;10172;42.054;24.546;2023-06-04T02:30:37;98284.66;;;16.61;100.00
20023;BME280;10172;42.054;24.546;2023-06-04T02:33:02;98289.16;;;16.99;100.00
20023;BME280;10172;42.054;24.546;2023-06-04T02:35:30;98300.06;;;17.63;100.00
20023;BME280;10172;42.054;24.546;2023-06-04T02:37:56;98299.44;;;17.32;100.00
20023;BME280;10172;42.054;24.546;2023-06-04T02:40:26;98295.56;;;17.44;100.00
20023;BME280;10172;42.054;24.546;2023-06-04T02:42:55;98299.63;;;17.02;100.00
20023;BME280;10172;42.054;24.546;2023-06-04T02:45:21;98301.22;;;17.51;100.00
20023;BME280;10172;42.054;24.546;2023-06-04T02:47:47;98307.94;;;17.74;100.00
20023;BME280;10172;42.054;24.546;2023-06-04T02:50:14;98309.25;;;17.14;100.00
20023;BME280;10172;42.054;24.546;2023-06-04T02:52:43;98315.06;;;17.92;100.00
20023;BME280;10172;42.054;24.546;2023-06-04T02:55:09;98309.19;;;18.07;100.00
20023;BME280;10172;42.054;24.546;2023-06-04T02:57:38;98308.44;;;17.87;100.00
20023;BME280;10172;42.054;24.546;2023-06-04T03:00:05;98321.19;;;18.49;100.00
20023;BME280;10172;42.054;24.546;2023-06-04T03:02:42;98310.91;;;17.15;100.00
20023;BME280;10172;42.054;24.546;2023-06-04T03:05:09;98317.59;;;17.11;100.00
20023;BME280;10172;42.054;24.546;2023-06-04T03:07:36;98317.69;;;17.38;100.00
20023;BME280;10172;42.054;24.546;2023-06-04T03:10:02;98333.31;;;17.52;100.00
20023;BME280;10172;42.054;24.546;2023-06-04T03:12:29;98329.47;;;17.74;100.00
20023;BME280;10172;42.054;24.546;2023-06-04T03:14:54;98329.25;;;17.48;100.00
20023;BME280;10172;42.054;24.546;2023-06-04T03:17:20;98338.94;;;17.78;100.00
20023;BME280;10172;42.054;24.546;2023-06-04T03:19:45;98334.50;;;17.40;100.00
20023;BME280;10172;42.054;24.546;2023-06-04T03:22:11;98334.66;;;17.29;100.00
20023;BME280;10172;42.054;24.546;2023-06-04T03:24:41;98342.84;;;17.27;100.00
20023;BME280;10172;42.054;24.546;2023-06-04T03:27:08;98355.16;;;17.96;100.00
20023;BME280;10172;42.054;24.546;2023-06-04T03:29:34;98352.66;;;18.39;100.00
20023;BME280;10172;42.054;24.546;2023-06-04T03:32:00;98362.75;;;18.37;100.00
20023;BME280;10172;42.054;24.546;2023-06-04T03:34:26;98348.41;;;17.07;100.00
20023;BME280;10172;42.054;24.546;2023-06-04T03:36:55;98360.91;;;18.10;100.00
20023;BME280;10172;42.054;24.546;2023-06-04T03:39:21;98361.22;;;18.79;100.00
20023;BME280;10172;42.054;24.546;2023-06-04T03:41:48;98372.28;;;19.11;100.00
20023;BME280;10172;42.054;24.546;2023-06-04T03:44:14;98365.53;;;19.43;100.00
20023;BME280;10172;42.054;24.546;2023-06-04T03:46:40;98370.19;;;19.58;100.00
20023;BME280;10172;42.054;24.546;2023-06-04T03:49:06;98368.44;;;19.75;100.00
20023;BME280;10172;42.054;24.546;2023-06-04T03:51:32;98377.00;;;19.96;100.00
20023;BME280;10172;42.054;24.546;2023-06-04T03:53:58;98370.88;;;20.20;100.00
20023;BME280;10172;42.054;24.546;2023-06-04T03:56:24;98374.09;;;20.23;100.00
20023;BME280;10172;42.054;24.546;2023-06-04T03:58:52;98373.22;;;19.81;100.00
20023;BME280;10172;42.054;24.546;2023-06-04T04:01:17;98381.25;;;19.99;100.00
20023;BME280;10172;42.054;24.546;2023-06-04T04:03:43;98378.53;;;20.24;100.00
20023;BME280;10172;42.054;24.546;2023-06-04T04:06:09;98385.38;;;20.11;100.00
20023;BME280;10172;42.054;24.546;2023-06-04T04:08:35;98385.19;;;20.38;100.00
20023;BME280;10172;42.054;24.546;2023-06-04T04:11:02;98386.75;;;20.23;100.00
20023;BME280;10172;42.054;24.546;2023-06-04T04:13:28;98385.81;;;20.06;100.00
20023;BME280;10172;42.054;24.546;2023-06-04T04:15:53;98382.84;;;20.17;100.00
20023;BME280;10172;42.054;24.546;2023-06-04T04:18:22;98389.47;;;20.23;100.00
20023;BME280;10172;42.054;24.546;2023-06-04T04:20:47;98396.00;;;19.61;100.00
20023;BME280;10172;42.054;24.546;2023-06-04T04:23:13;98401.94;;;19.90;100.00
20023;BME280;10172;42.054;24.546;2023-06-04T04:25:39;98402.53;;;20.02;100.00
20023;BME280;10172;42.054;24.546;2023-06-04T04:28:05;98398.50;;;20.32;100.00
20023;BME280;10172;42.054;24.546;2023-06-04T04:30:34;98412.34;;;20.78;100.00
20023;BME280;10172;42.054;24.546;2023-06-04T04:33:03;98403.66;;;20.59;100.00
20023;BME280;10172;42.054;24.546;2023-06-04T04:35:31;98400.88;;;19.83;100.00
20023;BME280;10172;42.054;24.546;2023-06-04T04:38:01;98395.50;;;19.83;100.00
20023;BME280;10172;42.054;24.546;2023-06-04T04:40:30;98396.09;;;20.28;100.00
20023;BME280;10172;42.054;24.546;2023-06-04T04:42:57;98405.88;;;20.63;100.00
20023;BME280;10172;42.054;24.546;2023-06-04T04:45:23;98405.31;;;20.44;100.00
20023;BME280;10172;42.054;24.546;2023-06-04T04:47:48;98421.28;;;20.79;100.00
20023;BME280;10172;42.054;24.546;2023-06-04T04:50:16;98410.63;;;20.69;100.00
20023;BME280;10172;42.054;24.546;2023-06-04T04:52:42;98403.06;;;20.81;100.00
20023;BME280;10172;42.054;24.546;2023-06-04T04:55:08;98410.94;;;21.08;100.00
20023;BME280;10172;42.054;24.546;2023-06-04T04:57:33;98412.59;;;21.09;100.00
20023;BME280;10172;42.054;24.546;2023-06-04T04:59:59;98420.34;;;21.04;100.00
20023;BME280;10172;42.054;24.546;2023-06-04T05:02:24;98405.34;;;21.34;100.00
20023;BME280;10172;42.054;24.546;2023-06-04T05:04:50;98415.84;;;21.37;100.00
20023;BME280;10172;42.054;24.546;2023-06-04T05:07:15;98422.97;;;21.54;100.00
20023;BME280;10172;42.054;24.546;2023-06-04T05:09:41;98426.84;;;21.19;100.00
20023;BME280;10172;42.054;24.546;2023-06-04T05:12:06;98423.78;;;21.38;100.00
20023;BME280;10172;42.054;24.546;2023-06-04T05:14:32;98429.22;;;21.63;100.00
20023;BME280;10172;42.054;24.546;2023-06-04T05:17:01;98425.50;;;21.72;100.00
20023;BME280;10172;42.054;24.546;2023-06-04T05:19:28;98441.75;;;21.56;100.00
20023;BME280;10172;42.054;24.546;2023-06-04T05:21:54;98436.47;;;21.22;100.00
20023;BME280;10172;42.054;24.546;2023-06-04T05:24:19;98442.53;;;20.66;100.00
20023;BME280;10172;42.054;24.546;2023-06-04T05:26:45;98444.72;;;21.12;100.00
20023;BME280;10172;42.054;24.546;2023-06-04T05:29:13;98436.34;;;20.14;100.00
20023;BME280;10172;42.054;24.546;2023-06-04T05:31:38;98447.03;;;19.72;100.00
20023;BME280;10172;42.054;24.546;2023-06-04T05:34:05;98433.16;;;19.93;100.00
20023;BME280;10172;42.054;24.546;2023-06-04T05:36:30;98443.91;;;20.70;100.00
20023;BME280;10172;42.054;24.546;2023-06-04T05:38:56;98445.34;;;20.98;100.00
20023;BME280;10172;42.054;24.546;2023-06-04T05:41:25;98453.06;;;21.35;100.00
20023;BME280;10172;42.054;24.546;2023-06-04T05:43:51;98461.72;;;21.71;100.00
20023;BME280;10172;42.054;24.546;2023-06-04T05:46:17;98469.13;;;21.69;100.00
20023;BME280;10172;42.054;24.546;2023-06-04T05:48:43;98474.75;;;21.91;100.00
20023;BME280;10172;42.054;24.546;2023-06-04T05:51:08;98462.72;;;22.02;100.00
20023;BME280;10172;42.054;24.546;2023-06-04T05:53:33;98459.50;;;21.98;100.00
20023;BME280;10172;42.054;24.546;2023-06-04T05:55:59;98461.44;;;20.66;100.00
20023;BME280;10172;42.054;24.546;2023-06-04T05:58:25;98466.13;;;20.90;100.00
20023;BME280;10172;42.054;24.546;2023-06-04T06:00:50;98473.22;;;21.49;100.00
20023;BME280;10172;42.054;24.546;2023-06-04T06:03:16;98473.56;;;21.70;100.00
20023;BME280;10172;42.054;24.546;2023-06-04T06:05:42;98477.56;;;21.41;100.00
20023;BME280;10172;42.054;24.546;2023-06-04T06:08:08;98473.03;;;21.66;100.00
20023;BME280;10172;42.054;24.546;2023-06-04T06:10:34;98483.63;;;20.36;100.00
20023;BME280;10172;42.054;24.546;2023-06-04T06:12:59;98477.44;;;20.93;100.00
20023;BME280;10172;42.054;24.546;2023-06-04T06:15:26;98468.00;;;20.97;100.00
20023;BME280;10172;42.054;24.546;2023-06-04T06:17:52;98477.78;;;20.98;100.00
20023;BME280;10172;42.054;24.546;2023-06-04T06:20:18;98487.88;;;21.22;100.00
20023;BME280;10172;42.054;24.546;2023-06-04T06:22:44;98485.66;;;21.17;100.00
20023;BME280;10172;42.054;24.546;2023-06-04T06:25:10;98484.97;;;21.15;100.00
20023;BME280;10172;42.054;24.546;2023-06-04T06:27:39;98483.69;;;21.35;100.00
20023;BME280;10172;42.054;24.546;2023-06-04T06:30:06;98491.28;;;19.79;100.00
20023;BME280;10172;42.054;24.546;2023-06-04T06:32:32;98486.97;;;20.12;100.00
20023;BME280;10172;42.054;24.546;2023-06-04T06:34:57;98493.09;;;19.96;100.00
20023;BME280;10172;42.054;24.546;2023-06-04T06:37:23;98487.38;;;20.84;100.00
20023;BME280;10172;42.054;24.546;2023-06-04T06:39:48;98501.91;;;20.50;100.00
20023;BME280;10172;42.054;24.546;2023-06-04T06:42:14;98492.59;;;20.18;100.00
20023;BME280;10172;42.054;24.546;2023-06-04T06:44:42;98500.03;;;20.42;100.00
20023;BME280;10172;42.054;24.546;2023-06-04T06:47:07;98496.97;;;20.79;100.00
20023;BME280;10172;42.054;24.546;2023-06-04T06:49:33;98504.44;;;21.19;100.00
20023;BME280;10172;42.054;24.546;2023-06-04T06:51:58;98500.97;;;21.75;100.00
20023;BME280;10172;42.054;24.546;2023-06-04T06:54:24;98499.66;;;22.03;100.00
20023;BME280;10172;42.054;24.546;2023-06-04T06:56:49;98501.28;;;22.36;100.00
20023;BME280;10172;42.054;24.546;2023-06-04T06:59:16;98504.69;;;22.38;100.00
20023;BME280;10172;42.054;24.546;2023-06-04T07:01:41;98511.38;;;22.58;100.00
20023;BME280;10172;42.054;24.546;2023-06-04T07:04:07;98511.25;;;22.36;100.00
20023;BME280;10172;42.054;24.546;2023-06-04T07:06:33;98513.59;;;22.47;100.00
20023;BME280;10172;42.054;24.546;2023-06-04T07:08:59;98509.75;;;22.25;100.00
20023;BME280;10172;42.054;24.546;2023-06-04T07:11:25;98512.81;;;22.22;100.00
20023;BME280;10172;42.054;24.546;2023-06-04T07:13:51;98517.91;;;22.09;100.00
20023;BME280;10172;42.054;24.546;2023-06-04T07:16:16;98513.19;;;21.87;100.00
20023;BME280;10172;42.054;24.546;2023-06-04T07:18:43;98521.47;;;21.93;100.00
20023;BME280;10172;42.054;24.546;2023-06-04T07:21:08;98513.00;;;21.88;100.00
20023;BME280;10172;42.054;24.546;2023-06-04T07:23:34;98521.44;;;21.69;100.00
20023;BME280;10172;42.054;24.546;2023-06-04T07:25:59;98521.66;;;22.16;100.00
20023;BME280;10172;42.054;24.546;2023-06-04T07:28:25;98521.88;;;22.61;100.00
20023;BME280;10172;42.054;24.546;2023-06-04T07:30:50;98519.53;;;22.67;100.00
20023;BME280;10172;42.054;24.546;2023-06-04T07:33:16;98529.00;;;22.79;100.00
20023;BME280;10172;42.054;24.546;2023-06-04T07:35:41;98518.81;;;22.81;100.00
20023;BME280;10172;42.054;24.546;2023-06-04T07:38:07;98528.94;;;22.95;100.00
20023;BME280;10172;42.054;24.546;2023-06-04T07:40:32;98536.28;;;23.17;100.00
20023;BME280;10172;42.054;24.546;2023-06-04T07:42:58;98539.84;;;22.79;100.00
20023;BME280;10172;42.054;24.546;2023-06-04T07:45:23;98542.34;;;22.88;100.00
20023;BME280;10172;42.054;24.546;2023-06-04T07:47:49;98543.69;;;22.92;100.00
20023;BME280;10172;42.054;24.546;2023-06-04T07:50:14;98542.59;;;23.09;100.00
20023;BME280;10172;42.054;24.546;2023-06-04T07:52:40;98548.75;;;23.42;100.00
20023;BME280;10172;42.054;24.546;2023-06-04T07:55:06;98544.25;;;23.57;100.00
20023;BME280;10172;42.054;24.546;2023-06-04T07:57:33;98543.78;;;22.28;100.00
20023;BME280;10172;42.054;24.546;2023-06-04T07:59:59;98542.91;;;20.71;100.00
20023;BME280;10172;42.054;24.546;2023-06-04T08:02:25;98542.94;;;21.71;100.00
20023;BME280;10172;42.054;24.546;2023-06-04T08:04:51;98551.78;;;22.13;100.00
20023;BME280;10172;42.054;24.546;2023-06-04T08:07:17;98549.59;;;22.00;100.00
20023;BME280;10172;42.054;24.546;2023-06-04T08:09:42;98545.97;;;21.52;100.00
20023;BME280;10172;42.054;24.546;2023-06-04T08:12:09;98549.59;;;22.00;100.00
20023;BME280;10172;42.054;24.546;2023-06-04T08:14:35;98543.09;;;22.42;100.00
20023;BME280;10172;42.054;24.546;2023-06-04T08:17:00;98542.25;;;20.77;100.00
20023;BME280;10172;42.054;24.546;2023-06-04T08:19:26;98543.41;;;21.00;100.00
20023;BME280;10172;42.054;24.546;2023-06-04T08:21:51;98544.50;;;20.81;100.00
20023;BME280;10172;42.054;24.546;2023-06-04T08:24:17;98543.31;;;22.08;100.00
20023;BME280;10172;42.054;24.546;2023-06-04T08:26:42;98547.84;;;22.48;100.00
20023;BME280;10172;42.054;24.546;2023-06-04T08:29:08;98558.09;;;22.93;100.00
20023;BME280;10172;42.054;24.546;2023-06-04T08:31:34;98555.72;;;21.44;100.00
20023;BME280;10172;42.054;24.546;2023-06-04T08:33:59;98556.88;;;22.16;100.00
20023;BME280;10172;42.054;24.546;2023-06-04T08:36:26;98553.78;;;21.71;100.00
20023;BME280;10172;42.054;24.546;2023-06-04T08:38:52;98549.59;;;22.17;100.00
20023;BME280;10172;42.054;24.546;2023-06-04T08:41:28;98549.00;;;21.57;100.00
20023;BME280;10172;42.054;24.546;2023-06-04T08:43:57;98548.75;;;22.16;100.00
20023;BME280;10172;42.054;24.546;2023-06-04T08:46:23;98552.91;;;21.54;100.00
20023;BME280;10172;42.054;24.546;2023-06-04T08:48:49;98554.09;;;22.73;100.00
20023;BME280;10172;42.054;24.546;2023-06-04T08:51:16;98557.19;;;23.08;100.00
20023;BME280;10172;42.054;24.546;2023-06-04T08:53:42;98561.94;;;22.27;100.00
20023;BME280;10172;42.054;24.546;2023-06-04T08:56:09;98549.41;;;22.26;100.00
20023;BME280;10172;42.054;24.546;2023-06-04T08:58:36;98559.84;;;22.61;100.00
20023;BME280;10172;42.054;24.546;2023-06-04T09:01:02;98566.44;;;23.30;100.00
20023;BME280;10172;42.054;24.546;2023-06-04T09:03:29;98571.47;;;23.41;100.00
20023;BME280;10172;42.054;24.546;2023-06-04T09:05:59;98575.38;;;23.69;100.00
20023;BME280;10172;42.054;24.546;2023-06-04T09:08:26;98564.06;;;23.27;100.00
20023;BME280;10172;42.054;24.546;2023-06-04T09:10:55;98550.94;;;21.88;100.00
20023;BME280;10172;42.054;24.546;2023-06-04T09:13:22;98553.78;;;22.68;100.00
20023;BME280;10172;42.054;24.546;2023-06-04T09:16:04;98576.72;;;22.96;100.00
20023;BME280;10172;42.054;24.546;2023-06-04T09:18:30;98570.84;;;23.23;100.00
20023;BME280;10172;42.054;24.546;2023-06-04T09:21:03;98572.09;;;22.25;100.00
20023;BME280;10172;42.054;24.546;2023-06-04T09:23:29;98560.53;;;22.63;100.00
20023;BME280;10172;42.054;24.546;2023-06-04T09:25:55;98570.69;;;22.78;100.00
20023;BME280;10172;42.054;24.546;2023-06-04T09:28:21;98570.59;;;23.02;100.00
20023;BME280;10172;42.054;24.546;2023-06-04T09:30:53;98555.78;;;22.66;100.00
20023;BME280;10172;42.054;24.546;2023-06-04T09:33:18;98573.00;;;22.97;100.00
20023;BME280;10172;42.054;24.546;2023-06-04T09:35:58;98566.50;;;23.14;100.00
20023;BME280;10172;42.054;24.546;2023-06-04T09:38:34;98578.19;;;23.14;97.38
20023;BME280;10172;42.054;24.546;2023-06-04T09:41:00;98577.94;;;23.40;91.95
20023;BME280;10172;42.054;24.546;2023-06-04T09:43:26;98578.19;;;23.53;89.46
20023;BME280;10172;42.054;24.546;2023-06-04T09:45:51;98585.34;;;23.54;86.23
20023;BME280;10172;42.054;24.546;2023-06-04T09:48:21;98583.63;;;23.53;87.61
20023;BME280;10172;42.054;24.546;2023-06-04T09:50:48;98587.16;;;23.62;87.36
20023;BME280;10172;42.054;24.546;2023-06-04T09:53:20;98582.81;;;23.75;85.96
20023;BME280;10172;42.054;24.546;2023-06-04T09:56:00;98579.19;;;23.83;85.86
20023;BME280;10172;42.054;24.546;2023-06-04T09:58:29;98575.94;;;23.88;86.78
20023;BME280;10172;42.054;24.546;2023-06-04T10:00:56;98577.63;;;23.89;91.29
20023;BME280;10172;42.054;24.546;2023-06-04T10:03:24;98575.13;;;23.56;94.84
20023;BME280;10172;42.054;24.546;2023-06-04T10:05:57;98570.84;;;23.85;95.50
20023;BME280;10172;42.054;24.546;2023-06-04T10:08:23;98581.88;;;23.91;96.44
20023;BME280;10172;42.054;24.546;2023-06-04T10:10:55;98573.69;;;24.22;95.75
20023;BME280;10172;42.054;24.546;2023-06-04T10:13:23;98559.34;;;24.65;94.47
20023;BME280;10172;42.054;24.546;2023-06-04T10:15:50;98565.75;;;25.02;90.72
20023;BME280;10172;42.054;24.546;2023-06-04T10:18:16;98570.53;;;24.48;89.81
20023;BME280;10172;42.054;24.546;2023-06-04T10:20:43;98576.56;;;24.20;91.42
20023;BME280;10172;42.054;24.546;2023-06-04T10:23:08;98560.97;;;24.14;91.34
20023;BME280;10172;42.054;24.546;2023-06-04T10:25:35;98571.97;;;24.44;89.13
20023;BME280;10172;42.054;24.546;2023-06-04T10:28:02;98554.34;;;23.94;91.05
20023;BME280;10172;42.054;24.546;2023-06-04T10:30:29;98571.13;;;23.98;91.38
20023;BME280;10172;42.054;24.546;2023-06-04T10:32:56;98564.13;;;24.26;87.61
20023;BME280;10172;42.054;24.546;2023-06-04T10:35:32;98566.53;;;24.21;86.97
20023;BME280;10172;42.054;24.546;2023-06-04T10:38:24;98562.72;;;24.67;87.49
20023;BME280;10172;42.054;24.546;2023-06-04T10:40:51;98563.19;;;24.71;83.20
20023;BME280;10172;42.054;24.546;2023-06-04T10:43:16;98569.25;;;24.21;85.48
20023;BME280;10172;42.054;24.546;2023-06-04T10:45:42;98556.13;;;23.56;87.27
20023;BME280;10172;42.054;24.546;2023-06-04T10:48:09;98555.31;;;24.24;86.99
20023;BME280;10172;42.054;24.546;2023-06-04T10:50:48;98543.19;;;24.49;86.54
20023;BME280;10172;42.054;24.546;2023-06-04T10:53:13;98547.81;;;25.07;81.32
20023;BME280;10172;42.054;24.546;2023-06-04T10:55:47;98543.72;;;25.83;79.16
20023;BME280;10172;42.054;24.546;2023-06-04T10:58:13;98529.66;;;25.29;80.86
20023;BME280;10172;42.054;24.546;2023-06-04T11:00:40;98522.00;;;25.89;79.83
20023;BME280;10172;42.054;24.546;2023-06-04T11:03:09;98529.72;;;25.86;76.84
20023;BME280;10172;42.054;24.546;2023-06-04T11:05:45;98512.56;;;25.35;78.70
20023;BME280;10172;42.054;24.546;2023-06-04T11:08:12;98515.94;;;25.37;79.92
20023;BME280;10172;42.054;24.546;2023-06-04T11:13:06;98528.16;;;25.41;78.61
20023;BME280;10172;42.054;24.546;2023-06-04T11:15:43;98534.97;;;24.86;77.39
20023;BME280;10172;42.054;24.546;2023-06-04T11:18:14;98530.63;;;25.07;76.52
20023;BME280;10172;42.054;24.546;2023-06-04T11:20:40;98525.00;;;24.64;77.89
20023;BME280;10172;42.054;24.546;2023-06-04T11:23:05;98521.00;;;25.40;76.45
20023;BME280;10172;42.054;24.546;2023-06-04T11:25:31;98529.66;;;25.43;74.77
20023;BME280;10172;42.054;24.546;2023-06-04T11:27:58;98529.75;;;25.71;74.36
20023;BME280;10172;42.054;24.546;2023-06-04T11:30:25;98532.34;;;25.58;74.63
20023;BME280;10172;42.054;24.546;2023-06-04T11:33:00;98532.03;;;25.46;73.20
20023;BME280;10172;42.054;24.546;2023-06-04T11:35:25;98527.59;;;25.31;74.24
20023;BME280;10172;42.054;24.546;2023-06-04T11:37:55;98523.31;;;25.22;74.93
20023;BME280;10172;42.054;24.546;2023-06-04T11:40:21;98514.31;;;25.07;74.21
20023;BME280;10172;42.054;24.546;2023-06-04T11:42:47;98522.47;;;25.21;74.67
20023;BME280;10172;42.054;24.546;2023-06-04T11:45:14;98522.19;;;25.02;75.75
20023;BME280;10172;42.054;24.546;2023-06-04T11:47:51;98508.09;;;24.69;76.35
20023;BME280;10172;42.054;24.546;2023-06-04T11:50:18;98521.50;;;24.56;76.26
20023;BME280;10172;42.054;24.546;2023-06-04T11:52:43;98518.03;;;24.76;76.38
20023;BME280;10172;42.054;24.546;2023-06-04T11:55:10;98510.13;;;24.89;75.32
20023;BME280;10172;42.054;24.546;2023-06-04T11:57:37;98519.56;;;24.93;75.20
20023;BME280;10172;42.054;24.546;2023-06-04T12:00:05;98510.81;;;26.05;76.45
20023;BME280;10172;42.054;24.546;2023-06-04T12:02:37;98510.03;;;25.90;75.93
20023;BME280;10172;42.054;24.546;2023-06-04T12:05:16;98518.72;;;26.43;72.50
20023;BME280;10172;42.054;24.546;2023-06-04T12:07:43;98517.47;;;26.45;73.04
20023;BME280;10172;42.054;24.546;2023-06-04T12:10:10;98523.50;;;26.96;72.94
20023;BME280;10172;42.054;24.546;2023-06-04T12:12:37;98518.41;;;27.34;73.27
20023;BME280;10172;42.054;24.546;2023-06-04T12:15:03;98512.81;;;27.01;73.94
20023;BME280;10172;42.054;24.546;2023-06-04T12:17:31;98505.88;;;26.71;75.46
20023;BME280;10172;42.054;24.546;2023-06-04T12:19:57;98510.97;;;27.08;73.18
20023;BME280;10172;42.054;24.546;2023-06-04T12:22:24;98517.34;;;26.81;73.21
20023;BME280;10172;42.054;24.546;2023-06-04T12:24:55;98515.88;;;26.85;75.55
20023;BME280;10172;42.054;24.546;2023-06-04T12:27:22;98506.50;;;26.39;78.60
20023;BME280;10172;42.054;24.546;2023-06-04T12:30:02;98513.47;;;26.20;79.39
20023;BME280;10172;42.054;24.546;2023-06-04T12:32:28;98529.13;;;25.90;81.33
20023;BME280;10172;42.054;24.546;2023-06-04T12:34:54;98521.19;;;25.95;81.54
20023;BME280;10172;42.054;24.546;2023-06-04T12:37:21;98518.78;;;25.29;84.47
20023;BME280;10172;42.054;24.546;2023-06-04T12:39:47;98532.16;;;25.45;85.83
20023;BME280;10172;42.054;24.546;2023-06-04T12:42:12;98522.03;;;25.53;85.34
20023;BME280;10172;42.054;24.546;2023-06-04T12:44:39;98525.94;;;25.66;85.38
20023;BME280;10172;42.054;24.546;2023-06-04T12:47:06;98520.47;;;25.30;85.68
20023;BME280;10172;42.054;24.546;2023-06-04T12:49:31;98528.72;;;25.51;85.77
20023;BME280;10172;42.054;24.546;2023-06-04T12:51:57;98514.94;;;25.23;86.78